createdAt,value
2023-03-22T00:00:20.354Z,100672.24
2023-03-22T00:01:24.715Z,100672.72
2023-03-22T00:02:29.021Z,100673.41
2023-03-22T00:03:33.500Z,100674.32
2023-03-22T00:04:37.885Z,100669.03
2023-03-22T00:05:42.258Z,100676.89
2023-03-22T00:06:46.600Z,100675.66
2023-03-22T00:07:50.913Z,100666.7
2023-03-22T00:08:55.274Z,100668.69
2023-03-22T00:09:59.581Z,100659.19
2023-03-22T00:11:03.850Z,100661.59
2023-03-22T00:12:08.195Z,100663.67
2023-03-22T00:13:12.533Z,100656.98
2023-03-22T00:14:16.826Z,100668.56
2023-03-22T00:15:21.136Z,100655.39
2023-03-22T00:16:25.610Z,100655.91
2023-03-22T00:17:30.168Z,100657.34
2023-03-22T00:18:34.465Z,100662.02
2023-03-22T00:19:38.775Z,100662.19
2023-03-22T00:20:43.075Z,100650.55
2023-03-22T00:21:48.367Z,100653.66
2023-03-22T00:22:52.744Z,100648.38
2023-03-22T00:23:57.042Z,100647.63
2023-03-22T00:25:01.365Z,100650.81
2023-03-22T00:26:05.683Z,100641.83
2023-03-22T00:27:09.992Z,100643.66
2023-03-22T00:28:14.299Z,100647.87
2023-03-22T00:29:18.631Z,100640.92
2023-03-22T00:30:22.926Z,100642.85
2023-03-22T00:31:27.450Z,100639.56
2023-03-22T00:32:31.832Z,100642.61
2023-03-22T00:33:36.113Z,100634.84
2023-03-22T00:34:40.418Z,100633.97
2023-03-22T00:35:44.811Z,100628.47
2023-03-22T00:36:49.253Z,100633.31
2023-03-22T00:37:53.564Z,100631.14
2023-03-22T00:38:57.855Z,100630.7
2023-03-22T00:40:02.160Z,100628.88
2023-03-22T00:41:06.480Z,100620.92
2023-03-22T00:42:10.765Z,100630.48
2023-03-22T00:43:15.067Z,100625.12
2023-03-22T00:44:19.345Z,100630.9
2023-03-22T00:45:23.650Z,100625.12
2023-03-22T00:46:27.988Z,100620.53
2023-03-22T00:47:32.541Z,100617.51
2023-03-22T00:48:36.839Z,100614.73
2023-03-22T00:49:41.167Z,100614.47
2023-03-22T00:50:45.456Z,100619.23
2023-03-22T00:51:49.773Z,100616.23
2023-03-22T00:52:54.056Z,100613.95
2023-03-22T00:53:58.363Z,100613.22
2023-03-22T00:55:02.646Z,100613.63
2023-03-22T00:56:07.050Z,100612.05
2023-03-22T00:57:11.350Z,100608.38
2023-03-22T00:58:15.637Z,100615.08
2023-03-22T00:59:19.949Z,100610.45
2023-03-22T01:00:24.254Z,100605.25
2023-03-22T01:01:28.738Z,100606.02
2023-03-22T01:02:33.113Z,100603.23
2023-03-22T01:03:37.502Z,100602.75
2023-03-22T01:04:42.041Z,100601.75
2023-03-22T01:05:46.401Z,100598.73
2023-03-22T01:06:50.707Z,100597.55
2023-03-22T01:07:55.026Z,100600.84
2023-03-22T01:08:59.338Z,100606.45
2023-03-22T01:10:03.629Z,100598.83
2023-03-22T01:11:07.981Z,100601.36
2023-03-22T01:12:12.256Z,100607.84
2023-03-22T01:13:18.955Z,100603.52
2023-03-22T01:14:23.220Z,100604.86
2023-03-22T01:15:30.464Z,100606.2
2023-03-22T01:16:35.025Z,100602.02
2023-03-22T01:17:39.432Z,100602.09
2023-03-22T01:18:43.783Z,100588.7
2023-03-22T01:19:48.051Z,100597.94
2023-03-22T01:20:52.395Z,100590.58
2023-03-22T01:21:56.690Z,100594.97
2023-03-22T01:23:01.018Z,100593.98
2023-03-22T01:24:05.342Z,100588.22
2023-03-22T01:25:09.665Z,100591.31
2023-03-22T01:26:13.992Z,100586.44
2023-03-22T01:27:18.259Z,100582.42
2023-03-22T01:28:24.695Z,100585.02
2023-03-22T01:29:30.886Z,100580.34
2023-03-22T01:30:35.314Z,100582.33
2023-03-22T01:31:39.745Z,100579.64
2023-03-22T01:32:44.017Z,100580.81
2023-03-22T01:33:48.394Z,100563.23
2023-03-22T01:34:52.689Z,100575.84
2023-03-22T01:35:57.118Z,100572.31
2023-03-22T01:37:01.657Z,100573.09
2023-03-22T01:38:05.962Z,100572.77
2023-03-22T01:39:10.323Z,100577.97
2023-03-22T01:40:14.628Z,100562.02
2023-03-22T01:41:18.974Z,100572.37
2023-03-22T01:42:23.274Z,100561.51
2023-03-22T01:43:27.586Z,100559.42
2023-03-22T01:44:31.890Z,100567.33
2023-03-22T01:45:36.200Z,100563.31
2023-03-22T01:46:40.624Z,100562.48
2023-03-22T01:47:45.138Z,100560.47
2023-03-22T01:48:49.659Z,100566.14
2023-03-22T01:49:53.977Z,100564.41
2023-03-22T01:50:58.272Z,100566.83
2023-03-22T01:52:02.586Z,100567.48
2023-03-22T01:53:06.873Z,100555.19
2023-03-22T01:54:11.202Z,100563.31
2023-03-22T01:55:15.522Z,100558.56
2023-03-22T01:56:19.854Z,100557.42
2023-03-22T01:57:24.200Z,100557.16
2023-03-22T01:58:28.486Z,100556.81
2023-03-22T01:59:32.740Z,100554.28
2023-03-22T02:00:37.293Z,100557.13
2023-03-22T02:01:42.230Z,100554.45
2023-03-22T02:02:46.705Z,100557.55
2023-03-22T02:03:51.094Z,100549.92
2023-03-22T02:04:55.468Z,100554.14
2023-03-22T02:05:59.763Z,100551.94
2023-03-22T02:07:04.056Z,100546.77
2023-03-22T02:08:08.437Z,100549.7
2023-03-22T02:09:13.761Z,100551.8
2023-03-22T02:10:18.065Z,100545.17
2023-03-22T02:11:22.355Z,100548.84
2023-03-22T02:12:26.679Z,100546.03
2023-03-22T02:13:30.999Z,100545.17
2023-03-22T02:14:35.294Z,100547.17
2023-03-22T02:15:39.674Z,100549.7
2023-03-22T02:16:44.015Z,100548.28
2023-03-22T02:17:48.325Z,100543.66
2023-03-22T02:18:52.608Z,100544.92
2023-03-22T02:19:56.905Z,100541.24
2023-03-22T02:21:03.490Z,100537.03
2023-03-22T02:22:07.778Z,100542.16
2023-03-22T02:23:12.074Z,100541.16
2023-03-22T02:24:16.394Z,100544.84
2023-03-22T02:25:20.696Z,100541.99
2023-03-22T02:26:25.099Z,100541.66
2023-03-22T02:27:29.413Z,100542.92
2023-03-22T02:28:33.755Z,100544.67
2023-03-22T02:29:38.053Z,100541.24
2023-03-22T02:30:42.576Z,100544.41
2023-03-22T02:31:46.915Z,100546.16
2023-03-22T02:32:51.257Z,100546.94
2023-03-22T02:33:55.546Z,100547.49
2023-03-22T02:34:59.849Z,100548.77
2023-03-22T02:36:04.126Z,100543.73
2023-03-22T02:37:08.470Z,100542.14
2023-03-22T02:38:12.796Z,100547.94
2023-03-22T02:39:17.075Z,100545.41
2023-03-22T02:40:21.377Z,100552.61
2023-03-22T02:41:25.701Z,100551.01
2023-03-22T02:42:30.037Z,100552.01
2023-03-22T02:43:34.361Z,100547.58
2023-03-22T02:44:38.646Z,100545.23
2023-03-22T02:45:42.914Z,100544.58
2023-03-22T02:46:47.433Z,100548.77
2023-03-22T02:47:51.900Z,100540.73
2023-03-22T02:48:56.441Z,100543.23
2023-03-22T02:50:00.751Z,100543.56
2023-03-22T02:51:05.059Z,100542.56
2023-03-22T02:52:09.328Z,100540.48
2023-03-22T02:53:13.608Z,100544.33
2023-03-22T02:54:17.905Z,100542.99
2023-03-22T02:55:22.220Z,100544.48
2023-03-22T02:56:26.580Z,100540.78
2023-03-22T02:57:30.868Z,100538.42
2023-03-22T02:58:35.158Z,100545.12
2023-03-22T02:59:39.427Z,100539.88
2023-03-22T03:00:44.106Z,100543.31
2023-03-22T03:01:48.585Z,100540.05
2023-03-22T03:02:53.034Z,100538.62
2023-03-22T03:03:57.324Z,100543.31
2023-03-22T03:05:01.612Z,100543.05
2023-03-22T03:06:05.912Z,100543.45
2023-03-22T03:07:10.225Z,100543.05
2023-03-22T03:08:14.501Z,100550.49
2023-03-22T03:09:18.823Z,100542.91
2023-03-22T03:10:23.115Z,100542.39
2023-03-22T03:11:27.415Z,100540.44
2023-03-22T03:12:31.746Z,100539.78
2023-03-22T03:13:36.065Z,100544.31
2023-03-22T03:14:40.339Z,100547.58
2023-03-22T03:15:44.680Z,100541.2
2023-03-22T03:16:48.981Z,100539.19
2023-03-22T03:17:53.486Z,100546.38
2023-03-22T03:18:57.772Z,100542.09
2023-03-22T03:20:02.070Z,100544.44
2023-03-22T03:21:06.383Z,100546.63
2023-03-22T03:22:10.735Z,100544.63
2023-03-22T03:23:15.054Z,100543.37
2023-03-22T03:24:19.351Z,100546.9
2023-03-22T03:25:23.646Z,100542.76
2023-03-22T03:26:27.964Z,100539.52
2023-03-22T03:27:32.276Z,100541.01
2023-03-22T03:28:36.581Z,100533.16
2023-03-22T03:29:40.912Z,100540.73
2023-03-22T03:30:45.241Z,100534.83
2023-03-22T03:31:49.609Z,100538.06
2023-03-22T03:32:53.928Z,100536.83
2023-03-22T03:33:58.258Z,100542.93
2023-03-22T03:35:02.573Z,100531.3
2023-03-22T03:36:06.876Z,100529.62
2023-03-22T03:37:11.169Z,100533.7
2023-03-22T03:38:15.513Z,100533.97
2023-03-22T03:39:19.818Z,100531.64
2023-03-22T03:40:24.133Z,100536.17
2023-03-22T03:41:28.480Z,100530.47
2023-03-22T03:42:32.852Z,100529.62
2023-03-22T03:43:37.170Z,100531.37
2023-03-22T03:44:41.475Z,100524.85
2023-03-22T03:45:45.962Z,100529.81
2023-03-22T03:46:50.380Z,100525.96
2023-03-22T03:47:54.746Z,100524.45
2023-03-22T03:48:59.067Z,100532.24
2023-03-22T03:50:03.382Z,100529.39
2023-03-22T03:51:07.711Z,100527.91
2023-03-22T03:52:12.030Z,100529.98
2023-03-22T03:53:16.318Z,100526.14
2023-03-22T03:54:20.623Z,100534.51
2023-03-22T03:55:25.204Z,100532.05
2023-03-22T03:56:29.487Z,100527.89
2023-03-22T03:57:33.921Z,100528.3
2023-03-22T03:58:38.247Z,100529.16
2023-03-22T03:59:42.529Z,100531.56
2023-03-22T04:00:46.826Z,100525.55
2023-03-22T04:01:51.548Z,100528.39
2023-03-22T04:02:56.341Z,100522.8
2023-03-22T04:04:00.701Z,100521
2023-03-22T04:05:05.126Z,100523.85
2023-03-22T04:06:09.452Z,100512.63
2023-03-22T04:07:13.770Z,100516.23
2023-03-22T04:08:18.066Z,100518.98
2023-03-22T04:09:22.377Z,100516.3
2023-03-22T04:10:27.673Z,100520.5
2023-03-22T04:11:31.957Z,100514.46
2023-03-22T04:12:36.255Z,100517.06
2023-03-22T04:13:40.546Z,100513.2
2023-03-22T04:14:44.871Z,100519.41
2023-03-22T04:15:49.183Z,100517.98
2023-03-22T04:16:53.676Z,100525.53
2023-03-22T04:17:58.052Z,100522.17
2023-03-22T04:19:02.364Z,100527.7
2023-03-22T04:20:07.058Z,100522.17
2023-03-22T04:21:11.368Z,100517.3
2023-03-22T04:22:15.819Z,100522.59
2023-03-22T04:23:20.138Z,100517.91
2023-03-22T04:24:24.575Z,100513.22
2023-03-22T04:25:28.867Z,100520.59
2023-03-22T04:26:33.284Z,100512.64
2023-03-22T04:27:37.660Z,100520.92
2023-03-22T04:28:41.947Z,100524.02
2023-03-22T04:29:46.232Z,100521.67
2023-03-22T04:30:50.580Z,100525.14
2023-03-22T04:31:55.223Z,100525.69
2023-03-22T04:32:59.528Z,100519.34
2023-03-22T04:34:03.797Z,100525.03
2023-03-22T04:35:08.080Z,100520.88
2023-03-22T04:36:12.372Z,100517.11
2023-03-22T04:37:16.733Z,100515.91
2023-03-22T04:38:21.037Z,100519.47
2023-03-22T04:39:25.316Z,100519.2
2023-03-22T04:40:29.652Z,100511.16
2023-03-22T04:41:33.947Z,100513.25
2023-03-22T04:42:38.273Z,100510.65
2023-03-22T04:43:42.616Z,100506.22
2023-03-22T04:44:46.905Z,100507.63
2023-03-22T04:45:51.244Z,100511.43
2023-03-22T04:46:55.637Z,100504.88
2023-03-22T04:48:00.082Z,100512.09
2023-03-22T04:49:04.545Z,100516.45
2023-03-22T04:50:08.900Z,100513.86
2023-03-22T04:51:13.178Z,100510.09
2023-03-22T04:52:17.458Z,100510.43
2023-03-22T04:53:21.839Z,100509.23
2023-03-22T04:54:26.296Z,100512
2023-03-22T04:55:30.579Z,100508.16
2023-03-22T04:56:34.936Z,100513.52
2023-03-22T04:57:39.262Z,100505.48
2023-03-22T04:58:43.562Z,100509.98
2023-03-22T04:59:47.936Z,100507.91
2023-03-22T05:00:52.285Z,100513.04
2023-03-22T05:01:56.662Z,100509.34
2023-03-22T05:03:01.270Z,100508.55
2023-03-22T05:04:05.707Z,100503.66
2023-03-22T05:05:10.034Z,100505.16
2023-03-22T05:06:14.368Z,100503.81
2023-03-22T05:07:18.683Z,100505.37
2023-03-22T05:08:22.993Z,100502.27
2023-03-22T05:09:27.396Z,100505.95
2023-03-22T05:10:31.719Z,100499.06
2023-03-22T05:11:36.041Z,100509.03
2023-03-22T05:12:40.371Z,100505.61
2023-03-22T05:13:44.666Z,100510.18
2023-03-22T05:14:49.071Z,100515.05
2023-03-22T05:15:53.743Z,100512.71
2023-03-22T05:16:58.145Z,100508.37
2023-03-22T05:18:02.424Z,100509.18
2023-03-22T05:19:06.693Z,100511.94
2023-03-22T05:20:11.064Z,100511.86
2023-03-22T05:21:15.361Z,100517.8
2023-03-22T05:22:19.649Z,100516.88
2023-03-22T05:23:23.920Z,100521.13
2023-03-22T05:24:28.255Z,100519.41
2023-03-22T05:25:32.607Z,100526.48
2023-03-22T05:26:36.931Z,100516
2023-03-22T05:27:41.219Z,100526.05
2023-03-22T05:28:45.526Z,100523.56
2023-03-22T05:29:49.874Z,100529.53
2023-03-22T05:30:57.628Z,100533.98
2023-03-22T05:32:01.915Z,100529.24
2023-03-22T05:33:08.490Z,100531.11
2023-03-22T05:34:12.872Z,100534.22
2023-03-22T05:35:17.322Z,100536.06
2023-03-22T05:36:21.695Z,100530.38
2023-03-22T05:37:25.979Z,100529.56
2023-03-22T05:38:30.290Z,100532.41
2023-03-22T05:39:34.568Z,100524.22
2023-03-22T05:40:39.503Z,100536.09
2023-03-22T05:41:44.634Z,100532
2023-03-22T05:42:48.917Z,100528.92
2023-03-22T05:43:53.210Z,100522.56
2023-03-22T05:44:57.537Z,100529.49
2023-03-22T05:46:01.879Z,100531.52
2023-03-22T05:47:06.372Z,100530.61
2023-03-22T05:48:11.164Z,100526.93
2023-03-22T05:49:15.665Z,100531.02
2023-03-22T05:50:19.959Z,100526.41
2023-03-22T05:51:24.335Z,100531.77
2023-03-22T05:52:28.641Z,100524.14
2023-03-22T05:53:32.985Z,100531.18
2023-03-22T05:54:37.308Z,100527.09
2023-03-22T05:55:41.614Z,100528.5
2023-03-22T05:56:46.000Z,100519.91
2023-03-22T05:57:50.270Z,100526.6
2023-03-22T05:58:54.575Z,100527.09
2023-03-22T05:59:58.869Z,100525.16
2023-03-22T06:01:03.183Z,100528.77
2023-03-22T06:02:07.599Z,100524.75
2023-03-22T06:03:12.077Z,100522.99
2023-03-22T06:04:19.872Z,100521.8
2023-03-22T06:05:24.196Z,100526.83
2023-03-22T06:06:28.478Z,100521.98
2023-03-22T06:07:32.775Z,100524.66
2023-03-22T06:08:37.055Z,100529.83
2023-03-22T06:09:41.384Z,100525.99
2023-03-22T06:10:45.669Z,100525.24
2023-03-22T06:11:49.981Z,100526.14
2023-03-22T06:12:54.363Z,100527.66
2023-03-22T06:13:58.825Z,100533.27
2023-03-22T06:15:03.234Z,100535.5
2023-03-22T06:16:07.691Z,100535.76
2023-03-22T06:17:12.141Z,100535.01
2023-03-22T06:18:16.488Z,100542.12
2023-03-22T06:19:20.800Z,100537.42
2023-03-22T06:20:25.105Z,100527.9
2023-03-22T06:21:29.483Z,100528.91
2023-03-22T06:22:33.787Z,100532.92
2023-03-22T06:23:38.130Z,100532.17
2023-03-22T06:24:42.428Z,100530.49
2023-03-22T06:25:46.753Z,100539.02
2023-03-22T06:26:51.069Z,100538.27
2023-03-22T06:27:55.388Z,100533.91
2023-03-22T06:28:59.719Z,100530.3
2023-03-22T06:30:04.052Z,100532.64
2023-03-22T06:31:08.760Z,100530.89
2023-03-22T06:32:13.294Z,100533.64
2023-03-22T06:33:17.584Z,100531.55
2023-03-22T06:34:21.878Z,100536.98
2023-03-22T06:35:26.200Z,100535.58
2023-03-22T06:36:30.808Z,100534.91
2023-03-22T06:37:35.197Z,100536.73
2023-03-22T06:38:39.521Z,100532.48
2023-03-22T06:39:43.834Z,100539.08
2023-03-22T06:40:48.102Z,100535.98
2023-03-22T06:41:52.430Z,100533.55
2023-03-22T06:42:56.759Z,100532.22
2023-03-22T06:44:01.099Z,100531.8
2023-03-22T06:45:05.427Z,100530.8
2023-03-22T06:46:09.794Z,100534.05
2023-03-22T06:47:14.294Z,100540.73
2023-03-22T06:48:18.853Z,100538.65
2023-03-22T06:49:23.285Z,100531.87
2023-03-22T06:50:27.567Z,100538.23
2023-03-22T06:51:31.933Z,100528.94
2023-03-22T06:52:36.286Z,100536.81
2023-03-22T06:53:40.569Z,100535.39
2023-03-22T06:54:44.861Z,100534.95
2023-03-22T06:55:49.161Z,100532.2
2023-03-22T06:56:53.475Z,100530.52
2023-03-22T06:57:57.780Z,100533.13
2023-03-22T06:59:02.082Z,100527.17
2023-03-22T07:00:06.440Z,100530.36
2023-03-22T07:01:10.912Z,100528.51
2023-03-22T07:02:15.288Z,100526.51
2023-03-22T07:03:19.553Z,100531.11
2023-03-22T07:04:23.976Z,100529.19
2023-03-22T07:05:28.382Z,100529.26
2023-03-22T07:06:32.753Z,100538.73
2023-03-22T07:07:37.071Z,100538.73
2023-03-22T07:08:41.398Z,100537.95
2023-03-22T07:09:45.740Z,100539.3
2023-03-22T07:10:50.014Z,100533.53
2023-03-22T07:11:54.370Z,100528.42
2023-03-22T07:12:58.823Z,100531.44
2023-03-22T07:14:03.189Z,100531.7
2023-03-22T07:15:07.563Z,100533.11
2023-03-22T07:16:12.015Z,100529.09
2023-03-22T07:17:16.516Z,100526.42
2023-03-22T07:18:20.886Z,100529.02
2023-03-22T07:19:25.175Z,100530.11
2023-03-22T07:20:29.457Z,100531.94
2023-03-22T07:21:33.924Z,100529.34
2023-03-22T07:22:38.228Z,100523.33
2023-03-22T07:23:42.540Z,100515.97
2023-03-22T07:25:00.029Z,100522.43
2023-03-22T07:26:05.530Z,100528.2
2023-03-22T07:27:09.875Z,100525.86
2023-03-22T07:28:14.187Z,100525
2023-03-22T07:29:18.528Z,100518.23
2023-03-22T07:30:22.830Z,100516.14
2023-03-22T07:31:27.175Z,100519.98
2023-03-22T07:32:31.675Z,100519.3
2023-03-22T07:33:36.113Z,100515.47
2023-03-22T07:34:40.510Z,100514.87
2023-03-22T07:35:44.958Z,100522.23
2023-03-22T07:36:49.358Z,100518.08
2023-03-22T07:37:53.768Z,100514.95
2023-03-22T07:38:58.127Z,100516.81
2023-03-22T07:40:02.435Z,100514.86
2023-03-22T07:41:06.939Z,100513.05
2023-03-22T07:42:11.259Z,100510.51
2023-03-22T07:43:15.574Z,100515.97
2023-03-22T07:44:19.859Z,100515.37
2023-03-22T07:45:24.599Z,100518.8
2023-03-22T07:46:29.474Z,100515.44
2023-03-22T07:47:42.047Z,100514.44
2023-03-22T07:48:46.444Z,100523.33
2023-03-22T07:49:50.781Z,100515.44
2023-03-22T07:50:55.065Z,100514.09
2023-03-22T07:51:59.368Z,100518.97
2023-03-22T07:53:03.741Z,100516.19
2023-03-22T07:54:08.843Z,100515.63
2023-03-22T07:55:13.227Z,100515.19
2023-03-22T07:56:17.646Z,100511.69
2023-03-22T07:57:21.931Z,100513.44
2023-03-22T07:58:26.300Z,100517.8
2023-03-22T07:59:30.578Z,100505.81
2023-03-22T08:00:34.942Z,100509.42
2023-03-22T08:01:39.323Z,100512.28
2023-03-22T08:02:43.707Z,100513.17
2023-03-22T08:03:48.104Z,100508.42
2023-03-22T08:04:56.667Z,100509.96
2023-03-22T08:06:01.091Z,100504.53
2023-03-22T08:07:05.381Z,100505.43
2023-03-22T08:08:09.692Z,100509.27
2023-03-22T08:09:13.996Z,100505.24
2023-03-22T08:10:18.316Z,100501.23
2023-03-22T08:11:22.627Z,100503.27
2023-03-22T08:12:26.981Z,100504.43
2023-03-22T08:13:31.288Z,100510.59
2023-03-22T08:14:38.209Z,100510.69
2023-03-22T08:15:42.662Z,100507.16
2023-03-22T08:16:47.104Z,100509.61
2023-03-22T08:17:51.502Z,100501.13
2023-03-22T08:18:55.793Z,100503.66
2023-03-22T08:20:00.153Z,100504.66
2023-03-22T08:21:04.509Z,100505.34
2023-03-22T08:22:08.894Z,100510.45
2023-03-22T08:23:13.200Z,100500.14
2023-03-22T08:24:17.525Z,100500.32
2023-03-22T08:25:21.817Z,100507.92
2023-03-22T08:26:26.305Z,100509.84
2023-03-22T08:27:30.677Z,100511.19
2023-03-22T08:28:35.075Z,100511.52
2023-03-22T08:29:39.399Z,100508.92
2023-03-22T08:30:43.707Z,100501.4
2023-03-22T08:31:48.315Z,100504.48
2023-03-22T08:32:52.766Z,100504.75
2023-03-22T08:33:57.085Z,100498.88
2023-03-22T08:35:01.373Z,100497.54
2023-03-22T08:36:05.785Z,100497.54
2023-03-22T08:37:10.142Z,100501.82
2023-03-22T08:38:14.434Z,100495.45
2023-03-22T08:39:18.736Z,100491.84
2023-03-22T08:40:23.144Z,100494.63
2023-03-22T08:41:27.617Z,100493.88
2023-03-22T08:42:31.950Z,100496.97
2023-03-22T08:43:36.237Z,100498.38
2023-03-22T08:44:40.548Z,100497.3
2023-03-22T08:45:45.369Z,100494.44
2023-03-22T08:46:49.783Z,100493.95
2023-03-22T08:47:54.282Z,100493.95
2023-03-22T08:48:58.639Z,100492.09
2023-03-22T08:50:03.053Z,100495.88
2023-03-22T08:51:07.412Z,100493.61
2023-03-22T08:52:11.724Z,100490.33
2023-03-22T08:53:16.020Z,100496.37
2023-03-22T08:54:20.363Z,100499.05
2023-03-22T08:55:24.633Z,100491.34
2023-03-22T08:56:31.694Z,100494.2
2023-03-22T08:57:39.563Z,100489.84
2023-03-22T08:58:43.865Z,100493.87
2023-03-22T08:59:48.161Z,100488.84
2023-03-22T09:00:52.694Z,100485.05
2023-03-22T09:01:57.447Z,100493.34
2023-03-22T09:03:02.021Z,100484.98
2023-03-22T09:04:07.876Z,100484.83
2023-03-22T09:05:14.266Z,100487.41
2023-03-22T09:06:18.584Z,100488.33
2023-03-22T09:07:23.016Z,100482.05
2023-03-22T09:08:27.343Z,100481.22
2023-03-22T09:09:31.719Z,100481.7
2023-03-22T09:10:36.040Z,100483.49
2023-03-22T09:11:40.325Z,100481.81
2023-03-22T09:12:44.693Z,100484.39
2023-03-22T09:13:49.028Z,100491.34
2023-03-22T09:14:54.757Z,100486.84
2023-03-22T09:16:00.449Z,100482.91
2023-03-22T09:17:04.900Z,100482.31
2023-03-22T09:18:09.633Z,100488.59
2023-03-22T09:19:13.931Z,100480.05
2023-03-22T09:20:18.249Z,100486.25
2023-03-22T09:21:22.604Z,100493.44
2023-03-22T09:22:27.064Z,100489
2023-03-22T09:23:31.417Z,100488
2023-03-22T09:24:35.790Z,100482.58
2023-03-22T09:25:40.935Z,100491.18
2023-03-22T09:26:45.642Z,100491.5
2023-03-22T09:27:49.923Z,100487.93
2023-03-22T09:28:54.209Z,100484.92
2023-03-22T09:29:58.518Z,100482.59
2023-03-22T09:31:02.966Z,100485
2023-03-22T09:32:07.490Z,100481.32
2023-03-22T09:33:11.801Z,100484.92
2023-03-22T09:34:16.141Z,100489.28
2023-03-22T09:35:20.607Z,100484.48
2023-03-22T09:36:25.159Z,100480.91
2023-03-22T09:37:29.453Z,100490.02
2023-03-22T09:38:33.946Z,100482.39
2023-03-22T09:39:38.367Z,100480.3
2023-03-22T09:40:42.677Z,100488.08
2023-03-22T09:41:46.984Z,100487.34
2023-03-22T09:42:51.308Z,100481.47
2023-03-22T09:43:55.630Z,100485.84
2023-03-22T09:44:59.923Z,100482.06
2023-03-22T09:46:04.252Z,100481.23
2023-03-22T09:47:08.634Z,100476.36
2023-03-22T09:48:13.165Z,100484.73
2023-03-22T09:49:17.580Z,100476.95
2023-03-22T09:50:21.975Z,100484.58
2023-03-22T09:51:26.315Z,100479.7
2023-03-22T09:52:30.848Z,100481.38
2023-03-22T09:53:35.301Z,100478.63
2023-03-22T09:54:42.736Z,100474.34
2023-03-22T09:55:47.101Z,100471.19
2023-03-22T09:56:51.445Z,100473.94
2023-03-22T09:57:55.771Z,100470.84
2023-03-22T09:59:00.054Z,100464.56
2023-03-22T10:00:04.354Z,100470.84
2023-03-22T10:01:08.910Z,100461.55
2023-03-22T10:02:13.704Z,100460.13
2023-03-22T10:03:18.226Z,100453.52
2023-03-22T10:04:22.756Z,100463.15
2023-03-22T10:05:27.100Z,100462.41
2023-03-22T10:06:31.503Z,100462.47
2023-03-22T10:07:35.913Z,100463.89
2023-03-22T10:08:40.210Z,100461.55
2023-03-22T10:09:44.516Z,100463.89
2023-03-22T10:10:48.815Z,100460.13
2023-03-22T10:11:53.117Z,100459.05
2023-03-22T10:12:57.596Z,100462.62
2023-03-22T10:14:01.918Z,100467.49
2023-03-22T10:15:06.217Z,100468.24
2023-03-22T10:16:10.752Z,100463.73
2023-03-22T10:17:15.483Z,100462.89
2023-03-22T10:18:19.795Z,100464.56
2023-03-22T10:19:24.106Z,100462.81
2023-03-22T10:20:28.428Z,100464.08
2023-03-22T10:21:32.778Z,100469.84
2023-03-22T10:22:37.089Z,100465.23
2023-03-22T10:23:44.547Z,100462.15
2023-03-22T10:24:48.876Z,100460.95
2023-03-22T10:25:53.152Z,100460.81
2023-03-22T10:26:57.447Z,100450.5
2023-03-22T10:28:01.727Z,100456.45
2023-03-22T10:29:06.014Z,100450.69
2023-03-22T10:30:10.407Z,100453.36
2023-03-22T10:31:14.820Z,100451.58
2023-03-22T10:32:19.291Z,100450.17
2023-03-22T10:33:23.816Z,100444.47
2023-03-22T10:34:28.150Z,100449.01
2023-03-22T10:35:32.660Z,100443.47
2023-03-22T10:36:38.101Z,100442.12
2023-03-22T10:37:42.410Z,100450.17
2023-03-22T10:38:46.714Z,100436.84
2023-03-22T10:39:51.037Z,100444.88
2023-03-22T10:40:55.313Z,100444.13
2023-03-22T10:41:59.656Z,100441.45
2023-03-22T10:43:04.070Z,100439.37
2023-03-22T10:44:08.372Z,100441.12
2023-03-22T10:45:12.694Z,100435.36
2023-03-22T10:46:17.310Z,100428.66
2023-03-22T10:47:21.796Z,100427.66
2023-03-22T10:48:26.262Z,100432.34
2023-03-22T10:49:30.670Z,100434.5
2023-03-22T10:50:34.993Z,100429.66
2023-03-22T10:51:39.258Z,100433.34
2023-03-22T10:52:43.696Z,100429.66
2023-03-22T10:53:47.992Z,100428.73
2023-03-22T10:54:52.277Z,100425.64
2023-03-22T10:55:56.572Z,100432.34
2023-03-22T10:57:00.915Z,100434.09
2023-03-22T10:58:05.238Z,100427.32
2023-03-22T10:59:09.532Z,100427.66
2023-03-22T11:00:13.818Z,100429.48
2023-03-22T11:01:18.513Z,100425.3
2023-03-22T11:02:23.559Z,100428.14
2023-03-22T11:03:28.236Z,100429.66
2023-03-22T11:04:32.617Z,100429.59
2023-03-22T11:05:36.888Z,100429.14
2023-03-22T11:06:41.865Z,100422.89
2023-03-22T11:07:46.291Z,100427.32
2023-03-22T11:08:50.639Z,100423.3
2023-03-22T11:09:54.935Z,100420.44
2023-03-22T11:10:59.348Z,100423.89
2023-03-22T11:12:03.890Z,100424.98
2023-03-22T11:13:08.196Z,100421.89
2023-03-22T11:14:12.507Z,100422.45
2023-03-22T11:15:16.816Z,100420.22
2023-03-22T11:16:21.300Z,100432.34
2023-03-22T11:17:25.760Z,100426.13
2023-03-22T11:18:30.185Z,100425.23
2023-03-22T11:19:34.480Z,100422.45
2023-03-22T11:20:39.170Z,100426.91
2023-03-22T11:21:44.191Z,100423.8
2023-03-22T11:22:48.477Z,100422.89
2023-03-22T11:23:52.850Z,100424.72
2023-03-22T11:24:57.161Z,100425.98
2023-03-22T11:26:01.489Z,100418.88
2023-03-22T11:27:05.786Z,100424.55
2023-03-22T11:28:10.150Z,100422.8
2023-03-22T11:29:14.516Z,100421.05
2023-03-22T11:30:18.840Z,100428.56
2023-03-22T11:31:23.387Z,100429.9
2023-03-22T11:32:27.928Z,100419.78
2023-03-22T11:33:32.409Z,100425.47
2023-03-22T11:34:36.743Z,100418.7
2023-03-22T11:35:41.183Z,100421.3
2023-03-22T11:36:45.630Z,100419.7
2023-03-22T11:37:49.902Z,100419.52
2023-03-22T11:38:54.349Z,100424.98
2023-03-22T11:39:58.667Z,100419.29
2023-03-22T11:41:03.001Z,100423.2
2023-03-22T11:42:07.438Z,100421.38
2023-03-22T11:43:11.725Z,100424.47
2023-03-22T11:44:16.108Z,100415.09
2023-03-22T11:45:20.443Z,100412.48
2023-03-22T11:46:24.957Z,100416.95
2023-03-22T11:47:29.504Z,100417.02
2023-03-22T11:48:34.066Z,100415.69
2023-03-22T11:49:38.680Z,100416.36
2023-03-22T11:50:43.709Z,100416.84
2023-03-22T11:51:48.118Z,100421.64
2023-03-22T11:52:52.443Z,100418.11
2023-03-22T11:53:56.790Z,100412.41
2023-03-22T11:55:01.165Z,100418.62
2023-03-22T11:56:05.495Z,100412.75
2023-03-22T11:57:09.836Z,100413.59
2023-03-22T11:58:14.177Z,100412.33
2023-03-22T11:59:18.498Z,100404.15
2023-03-22T12:00:22.822Z,100410.73
2023-03-22T12:01:27.110Z,100402.7
2023-03-22T12:02:31.822Z,100400.55
2023-03-22T12:03:39.992Z,100404.45
2023-03-22T12:04:44.618Z,100401.77
2023-03-22T12:05:49.151Z,100394.59
2023-03-22T12:06:53.616Z,100398.02
2023-03-22T12:07:57.923Z,100391.84
2023-03-22T12:09:02.383Z,100389.31
2023-03-22T12:10:06.658Z,100386.71
2023-03-22T12:11:10.979Z,100379.02
2023-03-22T12:12:15.370Z,100388.31
2023-03-22T12:13:19.811Z,100379.79
2023-03-22T12:14:24.198Z,100374.17
2023-03-22T12:15:28.572Z,100376.77
2023-03-22T12:16:33.125Z,100381.61
2023-03-22T12:17:37.637Z,100378.34